createdAt,value
2022-12-02T00:00:00.248Z,71.40
2022-12-02T00:02:34.886Z,71.40
2022-12-02T00:05:16.497Z,71.40
2022-12-02T00:07:54.502Z,71.50
2022-12-02T00:10:34.244Z,71.40
2022-12-02T00:13:19.822Z,71.60
2022-12-02T00:16:00.701Z,71.60
2022-12-02T00:18:33.362Z,71.60
2022-12-02T00:21:06.032Z,71.50
2022-12-02T00:23:38.578Z,71.50
2022-12-02T00:26:11.604Z,71.60
2022-12-02T00:28:44.129Z,71.60
2022-12-02T00:31:16.650Z,71.60
2022-12-02T00:33:49.505Z,71.70
2022-12-02T00:36:21.977Z,71.70
2022-12-02T00:38:55.368Z,71.80
2022-12-02T00:41:27.795Z,71.80
2022-12-02T00:44:18.621Z,71.70
2022-12-02T00:46:51.166Z,71.80
2022-12-02T00:49:23.811Z,71.90
2022-12-02T00:51:56.540Z,72.70
2022-12-02T00:54:29.126Z,71.90
2022-12-02T00:57:01.792Z,72.00
2022-12-02T00:59:34.627Z,71.90
2022-12-02T01:02:07.247Z,71.90
2022-12-02T01:04:39.925Z,72.00
2022-12-02T01:07:12.497Z,72.00
2022-12-02T01:09:45.086Z,72.00
2022-12-02T01:12:17.644Z,72.00
2022-12-02T01:14:50.497Z,72.10
2022-12-02T01:17:23.263Z,72.00
2022-12-02T01:19:55.805Z,72.10
2022-12-02T01:22:28.307Z,72.10
2022-12-02T01:25:00.898Z,72.20
2022-12-02T01:27:33.492Z,72.20
2022-12-02T01:30:06.544Z,72.20
2022-12-02T01:32:39.104Z,72.20
2022-12-02T01:35:11.906Z,72.20
2022-12-02T01:37:44.497Z,72.20
2022-12-02T01:40:19.860Z,72.10
2022-12-02T01:42:53.345Z,72.20
2022-12-02T01:45:26.414Z,72.20
2022-12-02T01:48:01.578Z,72.20
2022-12-02T01:50:34.722Z,72.20
2022-12-02T01:53:07.533Z,72.20
2022-12-02T01:55:40.595Z,72.20
2022-12-02T01:58:14.129Z,72.10
2022-12-02T02:00:46.849Z,72.10
2022-12-02T02:03:19.571Z,72.10
2022-12-02T02:05:52.305Z,72.20
2022-12-02T02:08:25.064Z,72.20
2022-12-02T02:10:57.856Z,72.20
2022-12-02T02:13:30.754Z,72.20
2022-12-02T02:16:03.680Z,72.10
2022-12-02T02:18:37.034Z,72.20
2022-12-02T02:21:15.643Z,72.20
2022-12-02T02:23:49.194Z,72.30
2022-12-02T02:26:22.754Z,72.30
2022-12-02T02:28:55.164Z,72.40
2022-12-02T02:31:28.187Z,72.30
2022-12-02T02:34:01.398Z,72.30
2022-12-02T02:36:34.059Z,72.30
2022-12-02T02:39:08.314Z,73.10
2022-12-02T02:41:41.372Z,72.30
2022-12-02T02:44:15.796Z,72.50
2022-12-02T02:46:49.089Z,72.50
2022-12-02T02:49:22.673Z,72.50
2022-12-02T02:51:55.181Z,72.50
2022-12-02T02:54:27.975Z,72.50
2022-12-02T02:57:01.792Z,72.50
2022-12-02T02:59:34.459Z,72.50
2022-12-02T03:02:10.350Z,72.60
2022-12-02T03:04:43.882Z,72.60
2022-12-02T03:07:18.891Z,72.60
2022-12-02T03:09:52.206Z,72.60
2022-12-02T03:12:25.266Z,72.60
2022-12-02T03:14:59.221Z,72.60
2022-12-02T03:17:32.129Z,72.70
2022-12-02T03:20:06.160Z,72.70
2022-12-02T03:22:38.752Z,72.70
2022-12-02T03:25:12.071Z,72.60
2022-12-02T03:27:44.434Z,72.60
2022-12-02T03:30:18.619Z,72.70
2022-12-02T03:32:51.539Z,72.60
2022-12-02T03:35:24.218Z,72.60
2022-12-02T03:37:57.044Z,72.70
2022-12-02T03:40:30.890Z,72.60
2022-12-02T03:43:03.967Z,72.60
2022-12-02T03:45:36.699Z,72.60
2022-12-02T03:48:10.454Z,72.70
2022-12-02T03:50:43.210Z,72.70
2022-12-02T03:53:15.848Z,72.70
2022-12-02T03:55:49.466Z,72.60
2022-12-02T03:58:36.715Z,72.60
2022-12-02T04:01:09.299Z,72.50
2022-12-02T04:03:42.223Z,72.40
2022-12-02T04:06:15.382Z,72.50
2022-12-02T04:08:47.937Z,72.50
2022-12-02T04:11:20.495Z,72.40
2022-12-02T04:13:53.289Z,72.40
2022-12-02T04:16:26.046Z,72.50
2022-12-02T04:18:58.606Z,72.50
2022-12-02T04:21:31.195Z,72.50
2022-12-02T04:24:03.881Z,72.40
2022-12-02T04:26:40.483Z,72.40
2022-12-02T04:29:16.015Z,72.40
2022-12-02T04:31:48.663Z,72.40
2022-12-02T04:34:21.384Z,72.40
2022-12-02T04:36:53.901Z,72.30
2022-12-02T04:39:26.464Z,72.30
2022-12-02T04:41:59.056Z,72.40
2022-12-02T04:44:31.654Z,72.40
2022-12-02T04:47:04.469Z,72.40
2022-12-02T04:49:37.000Z,72.40
2022-12-02T04:52:09.702Z,72.40
2022-12-02T04:54:42.511Z,72.40
2022-12-02T04:57:15.070Z,72.40
2022-12-02T04:59:47.680Z,72.40
2022-12-02T05:02:20.243Z,72.40
2022-12-02T05:04:53.064Z,72.30
2022-12-02T05:07:25.794Z,72.40
2022-12-02T05:09:58.320Z,72.40
2022-12-02T05:12:30.995Z,72.40
2022-12-02T05:15:03.694Z,72.40
2022-12-02T05:17:41.692Z,72.40
2022-12-02T05:20:14.905Z,72.30
2022-12-02T05:22:47.564Z,72.30
2022-12-02T05:25:20.241Z,72.40
2022-12-02T05:27:52.903Z,72.50
2022-12-02T05:30:25.424Z,72.50
2022-12-02T05:32:58.064Z,72.50
2022-12-02T05:35:30.646Z,72.40
2022-12-02T05:38:05.001Z,72.50
2022-12-02T05:40:38.074Z,72.50
2022-12-02T05:43:23.803Z,72.60
2022-12-02T05:45:59.625Z,72.60
2022-12-02T05:48:35.113Z,72.60
2022-12-02T05:51:13.695Z,72.60
2022-12-02T05:53:49.274Z,72.60
2022-12-02T05:56:26.067Z,72.70
2022-12-02T05:59:13.241Z,72.50
2022-12-02T06:01:55.655Z,72.60
2022-12-02T06:04:32.920Z,72.60
2022-12-02T06:07:12.304Z,72.60
2022-12-02T06:09:45.612Z,72.60
2022-12-02T06:12:18.542Z,72.60
2022-12-02T06:14:55.498Z,72.60
2022-12-02T06:17:28.150Z,72.60
2022-12-02T06:20:00.708Z,72.60
2022-12-02T06:22:34.767Z,72.60
2022-12-02T06:25:23.589Z,72.60
2022-12-02T06:28:23.158Z,72.60
2022-12-02T06:30:59.054Z,72.70
2022-12-02T06:33:33.888Z,72.70
2022-12-02T06:36:21.530Z,72.80
2022-12-02T06:38:56.048Z,72.80
2022-12-02T06:41:36.840Z,72.80
2022-12-02T06:44:42.844Z,72.80
2022-12-02T06:47:33.765Z,72.70
2022-12-02T06:50:06.568Z,72.70
2022-12-02T06:52:47.184Z,73.40
2022-12-02T06:55:33.265Z,72.30
2022-12-02T06:58:15.479Z,71.90
2022-12-02T07:00:48.421Z,71.80
2022-12-02T07:03:32.060Z,71.60
2022-12-02T07:06:19.247Z,71.30
2022-12-02T07:08:51.927Z,71.30
2022-12-02T07:11:51.891Z,70.90
2022-12-02T07:14:54.005Z,70.70
2022-12-02T07:17:30.035Z,70.60
2022-12-02T07:20:11.450Z,70.50
2022-12-02T07:22:48.607Z,70.40
2022-12-02T07:25:37.287Z,70.30
2022-12-02T07:28:24.234Z,70.10
2022-12-02T07:31:19.983Z,69.80
2022-12-02T07:33:53.045Z,69.70
2022-12-02T07:36:25.662Z,69.50
2022-12-02T07:39:05.953Z,69.40
2022-12-02T07:41:41.508Z,69.40
2022-12-02T07:44:17.242Z,69.40
2022-12-02T07:46:50.356Z,69.10
2022-12-02T07:49:23.482Z,69.00
2022-12-02T07:51:57.179Z,68.90
2022-12-02T07:54:29.933Z,68.70
2022-12-02T07:57:02.422Z,68.40
2022-12-02T07:59:34.965Z,68.40
2022-12-02T08:02:07.540Z,68.20
2022-12-02T08:04:40.294Z,68.10
2022-12-02T08:07:12.987Z,67.90
2022-12-02T08:09:45.509Z,67.80
2022-12-02T08:12:18.030Z,67.60
2022-12-02T08:14:50.936Z,67.60
2022-12-02T08:17:23.529Z,67.30
2022-12-02T08:19:56.183Z,67.20
2022-12-02T08:22:28.858Z,66.80
2022-12-02T08:25:02.526Z,66.70
2022-12-02T08:27:35.109Z,66.70
2022-12-02T08:30:09.776Z,67.00
2022-12-02T08:32:42.375Z,67.50
2022-12-02T08:35:15.098Z,67.60
2022-12-02T08:37:47.787Z,67.30
2022-12-02T08:40:21.120Z,67.30
2022-12-02T08:42:53.767Z,67.20
2022-12-02T08:45:26.320Z,67.10
2022-12-02T08:47:59.083Z,67.10
2022-12-02T08:50:31.742Z,67.00
2022-12-02T08:53:04.513Z,66.70
2022-12-02T08:55:37.157Z,66.60
2022-12-02T08:58:10.038Z,66.60
2022-12-02T09:00:42.802Z,66.50
2022-12-02T09:03:15.517Z,66.40
2022-12-02T09:05:48.146Z,66.40
2022-12-02T09:08:20.728Z,66.10
2022-12-02T09:10:53.591Z,66.00
2022-12-02T09:13:26.360Z,66.10
2022-12-02T09:15:59.156Z,66.10
2022-12-02T09:18:32.428Z,66.10
2022-12-02T09:21:05.558Z,66.00
2022-12-02T09:23:40.512Z,65.90
2022-12-02T09:26:13.071Z,65.90
2022-12-02T09:28:45.904Z,65.70
2022-12-02T09:31:18.819Z,65.50
2022-12-02T09:33:51.475Z,65.50
2022-12-02T09:36:24.053Z,65.40
2022-12-02T09:38:56.926Z,65.40
2022-12-02T09:41:29.669Z,65.30
2022-12-02T09:44:02.714Z,65.10
2022-12-02T09:46:35.534Z,65.10
2022-12-02T09:49:08.283Z,65.00
2022-12-02T09:51:40.913Z,64.90
2022-12-02T09:54:18.014Z,64.60
2022-12-02T09:56:50.889Z,64.50
2022-12-02T09:59:23.572Z,64.50
2022-12-02T10:02:00.082Z,64.40
2022-12-02T10:04:34.370Z,64.30
2022-12-02T10:07:10.104Z,64.30
2022-12-02T10:09:42.779Z,64.00
2022-12-02T10:12:18.389Z,64.10
2022-12-02T10:14:52.203Z,64.00
2022-12-02T10:17:25.222Z,63.90
2022-12-02T10:19:57.764Z,63.80
2022-12-02T10:22:30.378Z,63.90
2022-12-02T10:25:02.956Z,64.00
2022-12-02T10:27:37.167Z,64.10
2022-12-02T10:30:23.927Z,64.30
2022-12-02T10:33:03.521Z,64.30
2022-12-02T10:35:50.716Z,64.40
2022-12-02T10:38:40.099Z,64.50
2022-12-02T10:41:15.753Z,64.50
2022-12-02T10:43:54.378Z,64.50
2022-12-02T10:46:27.136Z,64.30
2022-12-02T10:49:35.155Z,64.40
2022-12-02T10:52:12.566Z,64.40
2022-12-02T10:54:48.870Z,64.30
2022-12-02T10:57:27.768Z,64.30
2022-12-02T11:00:08.245Z,64.50
2022-12-02T11:02:58.872Z,64.50
2022-12-02T11:05:34.277Z,64.50
2022-12-02T11:08:29.194Z,64.50
2022-12-02T11:11:37.212Z,64.60
2022-12-02T11:14:38.506Z,65.50
2022-12-02T11:17:13.199Z,64.70
2022-12-02T11:19:47.012Z,64.70
2022-12-02T11:22:57.644Z,64.80
2022-12-02T11:25:52.459Z,64.80
2022-12-02T11:28:30.794Z,64.70
2022-12-02T11:31:12.544Z,64.80
2022-12-02T11:33:58.878Z,64.90
2022-12-02T11:36:35.391Z,65.00
2022-12-02T11:39:13.556Z,65.00
2022-12-02T11:41:49.013Z,65.00
2022-12-02T11:44:29.800Z,65.10
2022-12-02T11:47:06.111Z,66.00
2022-12-02T11:49:42.491Z,65.20
2022-12-02T11:52:23.798Z,65.20
2022-12-02T11:55:00.644Z,65.20
2022-12-02T11:57:56.492Z,65.10
2022-12-02T12:00:38.207Z,65.30
2022-12-02T12:03:13.180Z,65.40
2022-12-02T12:06:14.061Z,65.30
2022-12-02T12:08:49.948Z,65.30
2022-12-02T12:11:31.600Z,65.50
2022-12-02T12:14:07.024Z,65.50
2022-12-02T12:16:47.607Z,65.70
2022-12-02T12:19:20.524Z,65.80
2022-12-02T12:21:57.755Z,65.80
2022-12-02T12:24:31.635Z,65.70
2022-12-02T12:27:04.277Z,65.70
2022-12-02T12:29:41.484Z,65.80
2022-12-02T12:32:14.895Z,65.70
2022-12-02T12:34:47.530Z,65.70
2022-12-02T12:37:20.068Z,65.50
2022-12-02T12:39:52.623Z,65.50
2022-12-02T12:42:25.194Z,65.50
2022-12-02T12:44:57.712Z,65.50
2022-12-02T12:47:30.298Z,65.60
2022-12-02T12:50:03.611Z,65.50
2022-12-02T12:52:36.252Z,65.50
2022-12-02T12:55:09.301Z,65.50
2022-12-02T12:57:41.866Z,65.50
2022-12-02T13:00:16.264Z,65.50
2022-12-02T13:02:49.840Z,65.50
2022-12-02T13:05:22.471Z,65.50
2022-12-02T13:07:55.573Z,65.60
2022-12-02T13:10:28.223Z,65.60
2022-12-02T13:13:00.723Z,65.60
2022-12-02T13:15:33.924Z,65.70
2022-12-02T13:18:06.406Z,65.70
2022-12-02T13:20:39.027Z,65.80
2022-12-02T13:23:11.699Z,65.90
2022-12-02T13:25:44.308Z,66.00
2022-12-02T13:28:16.857Z,66.10
2022-12-02T13:30:52.340Z,66.20
2022-12-02T13:33:24.974Z,66.40
2022-12-02T13:35:57.522Z,66.40
2022-12-02T13:38:30.146Z,66.60
2022-12-02T13:41:02.687Z,66.60
2022-12-02T13:43:35.361Z,66.70
2022-12-02T13:46:08.127Z,66.90
2022-12-02T13:48:40.777Z,66.90
2022-12-02T13:51:13.432Z,67.00
2022-12-02T13:53:46.130Z,66.90
2022-12-02T13:56:18.652Z,67.10
2022-12-02T13:58:52.753Z,67.00
2022-12-02T14:01:25.447Z,67.00
2022-12-02T14:03:58.113Z,67.10
2022-12-02T14:06:30.722Z,67.30
2022-12-02T14:09:03.919Z,67.30
2022-12-02T14:11:36.284Z,67.40
2022-12-02T14:14:08.851Z,67.50
2022-12-02T14:16:41.408Z,67.40
2022-12-02T14:19:14.003Z,67.60
2022-12-02T14:21:47.303Z,67.70
2022-12-02T14:24:19.977Z,67.80
2022-12-02T14:26:52.527Z,67.80
2022-12-02T14:29:25.157Z,68.00
2022-12-02T14:31:58.061Z,68.00
2022-12-02T14:34:32.184Z,68.10
2022-12-02T14:37:07.500Z,68.20
2022-12-02T14:39:42.808Z,68.20
2022-12-02T14:42:15.477Z,68.30
2022-12-02T14:44:48.002Z,68.50
2022-12-02T14:47:20.491Z,68.50
2022-12-02T14:49:53.160Z,68.70
2022-12-02T14:52:25.852Z,68.70
2022-12-02T14:54:58.441Z,68.80
2022-12-02T14:57:30.921Z,68.90
2022-12-02T15:00:05.565Z,68.90
2022-12-02T15:02:39.238Z,69.00
2022-12-02T15:05:16.961Z,69.10
2022-12-02T15:07:49.909Z,69.20
2022-12-02T15:10:22.600Z,69.30
2022-12-02T15:12:55.690Z,69.30
2022-12-02T15:15:48.219Z,69.40
2022-12-02T15:18:22.330Z,69.30
2022-12-02T15:20:58.140Z,69.30
2022-12-02T15:23:30.758Z,69.30
2022-12-02T15:26:03.432Z,69.30
2022-12-02T15:28:37.166Z,69.20
2022-12-02T15:31:10.044Z,70.20
2022-12-02T15:33:43.788Z,69.30
2022-12-02T15:36:17.429Z,69.30
2022-12-02T15:38:50.350Z,69.40
2022-12-02T15:41:22.999Z,69.50
2022-12-02T15:43:55.582Z,69.60
2022-12-02T15:46:28.332Z,69.60
2022-12-02T15:49:00.998Z,69.60
2022-12-02T15:51:34.491Z,69.70
2022-12-02T15:54:07.290Z,69.90
2022-12-02T15:56:41.034Z,70.10
2022-12-02T15:59:13.993Z,70.00
2022-12-02T16:01:47.756Z,70.10
2022-12-02T16:04:24.815Z,70.10
2022-12-02T16:06:57.654Z,70.10
2022-12-02T16:09:30.561Z,70.20
2022-12-02T16:12:03.118Z,70.20
2022-12-02T16:14:36.951Z,70.30
2022-12-02T16:17:10.912Z,70.30
2022-12-02T16:19:43.757Z,70.40
2022-12-02T16:22:16.288Z,70.40
2022-12-02T16:24:49.314Z,70.50
2022-12-02T16:27:26.073Z,70.50
2022-12-02T16:29:58.921Z,70.60
2022-12-02T16:32:31.607Z,70.60
2022-12-02T16:35:07.781Z,70.70
2022-12-02T16:37:40.761Z,70.70
2022-12-02T16:40:15.635Z,70.70
2022-12-02T16:42:48.353Z,70.80
2022-12-02T16:45:21.984Z,70.80
2022-12-02T16:47:54.786Z,70.80
2022-12-02T16:50:27.334Z,70.80
2022-12-02T16:53:00.034Z,70.90
2022-12-02T16:55:32.606Z,70.90
2022-12-02T16:58:07.559Z,70.90
2022-12-02T17:00:40.371Z,70.90
2022-12-02T17:03:13.028Z,70.90
2022-12-02T17:05:45.741Z,71.00
2022-12-02T17:08:18.306Z,70.90
2022-12-02T17:10:50.906Z,71.00
2022-12-02T17:13:24.601Z,70.90
2022-12-02T17:15:57.621Z,70.90
2022-12-02T17:18:31.189Z,71.00
2022-12-02T17:21:03.968Z,71.00
2022-12-02T17:23:37.611Z,71.00
2022-12-02T17:26:10.286Z,71.00
2022-12-02T17:28:42.891Z,71.00
2022-12-02T17:31:15.661Z,71.00
2022-12-02T17:33:48.250Z,71.00
2022-12-02T17:36:20.785Z,71.00
2022-12-02T17:38:57.341Z,71.00
2022-12-02T17:41:31.905Z,71.00
2022-12-02T17:44:04.577Z,71.00
2022-12-02T17:46:37.903Z,71.00
2022-12-02T17:49:10.956Z,71.00
2022-12-02T17:52:00.619Z,71.00
2022-12-02T17:54:37.081Z,71.00
2022-12-02T17:57:09.823Z,70.90
2022-12-02T17:59:42.547Z,71.00
2022-12-02T18:02:15.956Z,70.90
2022-12-02T18:04:48.902Z,70.90
2022-12-02T18:07:22.668Z,70.90
2022-12-02T18:09:56.092Z,71.70
2022-12-02T18:12:28.789Z,70.90
2022-12-02T18:15:01.344Z,70.90
2022-12-02T18:17:33.944Z,70.90
2022-12-02T18:20:07.218Z,70.90
2022-12-02T18:22:40.303Z,70.90
2022-12-02T18:25:14.060Z,70.90
2022-12-02T18:27:49.442Z,70.90
2022-12-02T18:30:23.507Z,70.90
2022-12-02T18:32:56.260Z,70.90
2022-12-02T18:35:28.915Z,71.00
2022-12-02T18:38:01.424Z,70.90
2022-12-02T18:40:34.103Z,71.00
2022-12-02T18:43:07.223Z,70.90
2022-12-02T18:45:39.961Z,70.90
2022-12-02T18:48:12.526Z,70.90
2022-12-02T18:50:46.107Z,70.90
2022-12-02T18:53:18.862Z,70.90
2022-12-02T18:55:52.685Z,70.80
2022-12-02T18:58:25.538Z,70.90
2022-12-02T19:00:59.349Z,70.90
2022-12-02T19:03:32.442Z,70.90
2022-12-02T19:06:06.422Z,70.90
2022-12-02T19:08:39.275Z,70.80
2022-12-02T19:11:13.148Z,70.90
2022-12-02T19:13:46.620Z,70.90
2022-12-02T19:16:19.874Z,70.90
2022-12-02T19:18:53.152Z,70.80
2022-12-02T19:21:27.048Z,70.80
2022-12-02T19:23:59.937Z,70.90
2022-12-02T19:26:32.519Z,70.90
2022-12-02T19:29:05.005Z,70.90
2022-12-02T19:31:43.873Z,70.90
2022-12-02T19:34:16.929Z,70.90
2022-12-02T19:36:49.508Z,70.80
2022-12-02T19:39:22.282Z,70.90
2022-12-02T19:41:55.169Z,70.80
2022-12-02T19:44:27.652Z,70.90
2022-12-02T19:47:00.333Z,70.90
2022-12-02T19:49:32.949Z,70.90
2022-12-02T19:52:05.563Z,71.00
2022-12-02T19:54:38.200Z,71.00
2022-12-02T19:57:10.778Z,71.00
2022-12-02T19:59:43.388Z,71.10
2022-12-02T20:02:16.134Z,71.10
2022-12-02T20:04:48.806Z,71.10
2022-12-02T20:07:21.490Z,71.20
2022-12-02T20:09:54.105Z,71.20
2022-12-02T20:12:26.696Z,71.30
2022-12-02T20:14:59.428Z,71.20
2022-12-02T20:17:32.134Z,71.30
2022-12-02T20:20:09.780Z,71.30
2022-12-02T20:22:43.130Z,71.40
2022-12-02T20:25:15.541Z,71.40
2022-12-02T20:27:52.826Z,71.30
2022-12-02T20:30:27.273Z,71.40
2022-12-02T20:32:59.879Z,71.50
2022-12-02T20:35:32.570Z,71.60
2022-12-02T20:38:05.203Z,71.60
2022-12-02T20:40:37.863Z,71.60
2022-12-02T20:43:11.033Z,71.70
2022-12-02T20:45:43.641Z,71.70
2022-12-02T20:48:16.258Z,71.80
2022-12-02T20:50:49.006Z,71.80
2022-12-02T20:53:21.774Z,71.80
2022-12-02T20:55:55.174Z,71.90
2022-12-02T20:58:28.203Z,71.90
2022-12-02T21:01:00.907Z,72.10
2022-12-02T21:03:33.608Z,72.10
2022-12-02T21:06:06.373Z,72.10
2022-12-02T21:08:38.993Z,72.10
2022-12-02T21:11:11.637Z,72.10
2022-12-02T21:13:45.926Z,72.20
2022-12-02T21:16:19.133Z,72.30
2022-12-02T21:18:51.566Z,72.30
2022-12-02T21:21:24.422Z,72.20
2022-12-02T21:24:03.070Z,72.20
2022-12-02T21:26:36.485Z,72.30
2022-12-02T21:29:10.144Z,72.40
2022-12-02T21:31:42.878Z,72.50
2022-12-02T21:34:15.607Z,72.50
2022-12-02T21:36:48.114Z,72.50
2022-12-02T21:39:21.260Z,72.50
2022-12-02T21:41:53.795Z,72.50
2022-12-02T21:44:26.459Z,72.50
2022-12-02T21:46:59.231Z,72.50
2022-12-02T21:49:31.858Z,72.50
2022-12-02T21:52:04.768Z,72.50
2022-12-02T21:54:37.405Z,72.60
2022-12-02T21:57:10.144Z,72.60
2022-12-02T21:59:43.223Z,72.60
2022-12-02T22:02:17.289Z,73.50
2022-12-02T22:04:50.103Z,72.60
2022-12-02T22:07:40.686Z,72.60
2022-12-02T22:10:17.305Z,72.60
2022-12-02T22:12:50.773Z,72.60
2022-12-02T22:15:23.726Z,72.60
2022-12-02T22:17:56.406Z,72.70
2022-12-02T22:20:29.157Z,72.70
2022-12-02T22:23:01.768Z,72.70
2022-12-02T22:25:34.382Z,72.70
2022-12-02T22:28:07.016Z,72.70
2022-12-02T22:30:39.617Z,72.70
2022-12-02T22:33:12.175Z,72.70
2022-12-02T22:35:44.765Z,72.70
2022-12-02T22:38:17.450Z,72.70
2022-12-02T22:40:50.058Z,72.70
2022-12-02T22:43:22.708Z,72.70
2022-12-02T22:45:55.370Z,72.70
2022-12-02T22:48:28.107Z,72.70
2022-12-02T22:51:00.859Z,72.80
2022-12-02T22:53:33.591Z,72.70
2022-12-02T22:56:06.258Z,72.70
2022-12-02T22:58:38.880Z,72.70
2022-12-02T23:01:11.524Z,72.70
2022-12-02T23:03:44.062Z,72.90
2022-12-02T23:06:16.605Z,72.90
2022-12-02T23:08:49.175Z,73.00
2022-12-02T23:11:21.739Z,73.20
2022-12-02T23:13:54.324Z,73.40
2022-12-02T23:16:28.820Z,73.50
2022-12-02T23:19:01.520Z,73.60
2022-12-02T23:21:34.183Z,73.80
2022-12-02T23:24:07.193Z,73.80
2022-12-02T23:26:39.822Z,73.90
2022-12-02T23:29:12.316Z,73.90
2022-12-02T23:31:44.897Z,74.00
2022-12-02T23:34:17.515Z,74.90
2022-12-02T23:36:50.170Z,74.10
2022-12-02T23:39:23.078Z,74.20
2022-12-02T23:41:55.660Z,74.20
2022-12-02T23:44:28.314Z,74.20
2022-12-02T23:47:00.941Z,74.30
2022-12-02T23:49:33.506Z,74.50
2022-12-02T23:52:06.303Z,74.40
2022-12-02T23:54:39.047Z,74.50
2022-12-02T23:57:11.563Z,74.50
2022-12-02T23:59:44.242Z,74.50
